Apple River, Illinois
Current Conditions -  °F | °C
As of 11:15 AM on Friday 24 Oct 2014 (Local Time) from KPVB Reporting Station
Overcast Overcast  
Wind Chill: 55°   Ceiling: 300
Heat Index: 55°   Visibility: 0.5mi
Dew Point: 54°   Wind: 12mph
Humidity: 97%   Direction: 180°S
Pressure: 30.04"   Gusts: NA
Location:  42.51°N, 90.1°W
Report Text: KPVB 241615Z AUTO 18010KT 1/2SM OVC003 13/12 A3004 RMK AO1 T01250120
Loading
Personal Weather Stations






























Interactive Weather Map New forecast layout! Learn more

10-Day Weather Forecast

Advertisements
Track Severe Weather on mobile